To NAV CANADA Home Page Login to a new session Search on AWWS site Feedback and Comments Disclaimer Vers la page française équivalente Tips FAQ What's new on the site To the Forecasts and Observations / NOTAM section To "File a Flight Plan" website Publications and other links Update of the User's profile FIC Telephone Numbers My Weather Data Folder Route Weather Data Regional Weather Data Local Weather Data To the Forecasts and Observations / NOTAM section
Request Generated 12/04/2016 at 22:19:14 UTC . Weather information available at that time is displayed.

METAR/TAF

GANDER/GANDER INTL/NL    

METAR CYQX 042200Z 35008KT 15SM FEW008 FEW036 M04/M05 A2969 RMK
SF1SC1 SLP063=
METAR CYQX 042100Z 34013KT 8SM -SN FEW008 FEW015 OVC033 M03/M05 A2968
RMK SF1SC1SC6 SLP059=
METAR CYQX 042000Z CCA 35013G18KT 8SM -SN FEW008 SCT016 SCT025 BKN038
M02/M04 A2966 RMK SF1SC2SC1SC3 VIS LWR SE-S AC TR SLP053=
METAR CYQX 042000Z 35013G18KT 8SM -SN FEW008 SCT016 SCT025 BKN038
M02/M04 A2966 RMK SF1SC2SC1SC3 VIS LWR SE-S SLP053=

TAF CYQX 041738Z 0418/0518 36012KT P6SM BKN040 TEMPO 0418/0422 2SM
-SN BKN007 BKN040
FM042200 36012G22KT 5SM -SN SCT006 BKN020 TEMPO 0422/0503 P6SM
NSW BKN040
FM050300 33010KT P6SM -SN BKN020
FM050800 29008KT 5SM -SN SCT008 OVC015
RMK NXT FCST BY 050000Z=
Your time UTC time
Weather data provided by Environment Canada and NAV CANADA